sensor_id;sensor_type;location;lat;lon;timestamp;P1;durP1;ratioP1;P2;durP2;ratioP2
16579;SDS011;8402;51.466;6.806;2023-02-28T00:00:08;19.40;;;6.10;;
16579;SDS011;8402;51.466;6.806;2023-02-28T00:02:40;9.53;;;5.47;;
16579;SDS011;8402;51.466;6.806;2023-02-28T00:05:14;9.17;;;4.07;;
16579;SDS011;8402;51.466;6.806;2023-02-28T00:07:46;9.27;;;4.40;;
16579;SDS011;8402;51.466;6.806;2023-02-28T00:10:18;8.80;;;4.47;;
16579;SDS011;8402;51.466;6.806;2023-02-28T00:12:49;19.00;;;4.80;;
16579;SDS011;8402;51.466;6.806;2023-02-28T00:15:20;8.93;;;4.10;;
16579;SDS011;8402;51.466;6.806;2023-02-28T00:17:50;14.53;;;4.30;;
16579;SDS011;8402;51.466;6.806;2023-02-28T00:20:23;11.73;;;5.20;;
16579;SDS011;8402;51.466;6.806;2023-02-28T00:22:54;10.13;;;4.70;;
16579;SDS011;8402;51.466;6.806;2023-02-28T00:25:24;11.30;;;4.63;;
16579;SDS011;8402;51.466;6.806;2023-02-28T00:27:55;10.67;;;4.60;;
16579;SDS011;8402;51.466;6.806;2023-02-28T00:30:24;12.63;;;5.10;;
16579;SDS011;8402;51.466;6.806;2023-02-28T00:32:54;13.37;;;5.17;;
16579;SDS011;8402;51.466;6.806;2023-02-28T00:35:28;12.13;;;4.47;;
16579;SDS011;8402;51.466;6.806;2023-02-28T00:37:58;9.23;;;4.73;;
16579;SDS011;8402;51.466;6.806;2023-02-28T00:40:29;10.17;;;4.53;;
16579;SDS011;8402;51.466;6.806;2023-02-28T00:42:58;11.50;;;4.97;;
16579;SDS011;8402;51.466;6.806;2023-02-28T00:45:29;10.50;;;4.87;;
16579;SDS011;8402;51.466;6.806;2023-02-28T00:47:59;9.57;;;4.50;;
16579;SDS011;8402;51.466;6.806;2023-02-28T00:50:33;11.00;;;4.97;;
16579;SDS011;8402;51.466;6.806;2023-02-28T00:53:03;12.60;;;4.90;;
16579;SDS011;8402;51.466;6.806;2023-02-28T00:55:33;10.17;;;4.57;;
16579;SDS011;8402;51.466;6.806;2023-02-28T00:58:03;11.70;;;4.00;;
16579;SDS011;8402;51.466;6.806;2023-02-28T01:00:33;9.27;;;4.07;;
16579;SDS011;8402;51.466;6.806;2023-02-28T01:03:03;11.07;;;4.10;;
16579;SDS011;8402;51.466;6.806;2023-02-28T01:05:36;8.13;;;4.00;;
16579;SDS011;8402;51.466;6.806;2023-02-28T01:08:08;8.20;;;4.03;;
16579;SDS011;8402;51.466;6.806;2023-02-28T01:10:38;6.30;;;3.67;;
16579;SDS011;8402;51.466;6.806;2023-02-28T01:13:08;12.10;;;4.53;;
16579;SDS011;8402;51.466;6.806;2023-02-28T01:15:39;8.70;;;4.10;;
16579;SDS011;8402;51.466;6.806;2023-02-28T01:18:13;9.17;;;3.80;;
16579;SDS011;8402;51.466;6.806;2023-02-28T01:20:45;6.60;;;3.63;;
16579;SDS011;8402;51.466;6.806;2023-02-28T01:23:15;5.40;;;2.90;;
16579;SDS011;8402;51.466;6.806;2023-02-28T01:25:45;8.30;;;3.33;;
16579;SDS011;8402;51.466;6.806;2023-02-28T01:28:15;8.70;;;3.10;;
16579;SDS011;8402;51.466;6.806;2023-02-28T01:30:47;10.00;;;3.70;;
16579;SDS011;8402;51.466;6.806;2023-02-28T01:33:18;9.13;;;3.50;;
16579;SDS011;8402;51.466;6.806;2023-02-28T01:35:57;7.97;;;3.70;;
16579;SDS011;8402;51.466;6.806;2023-02-28T01:38:28;8.13;;;3.33;;
16579;SDS011;8402;51.466;6.806;2023-02-28T01:40:59;5.27;;;3.00;;
16579;SDS011;8402;51.466;6.806;2023-02-28T01:46:25;7.10;;;3.30;;
16579;SDS011;8402;51.466;6.806;2023-02-28T01:48:56;7.27;;;3.60;;
16579;SDS011;8402;51.466;6.806;2023-02-28T01:51:34;7.47;;;2.90;;
16579;SDS011;8402;51.466;6.806;2023-02-28T01:54:14;6.27;;;3.00;;
16579;SDS011;8402;51.466;6.806;2023-02-28T01:56:47;9.00;;;3.20;;
16579;SDS011;8402;51.466;6.806;2023-02-28T01:59:23;5.60;;;2.67;;
16579;SDS011;8402;51.466;6.806;2023-02-28T02:01:56;4.60;;;2.90;;
16579;SDS011;8402;51.466;6.806;2023-02-28T02:04:27;9.27;;;3.40;;
16579;SDS011;8402;51.466;6.806;2023-02-28T02:07:06;6.87;;;2.90;;
16579;SDS011;8402;51.466;6.806;2023-02-28T02:09:36;6.90;;;3.10;;
16579;SDS011;8402;51.466;6.806;2023-02-28T02:12:07;4.23;;;2.30;;
16579;SDS011;8402;51.466;6.806;2023-02-28T02:14:50;5.80;;;2.80;;
16579;SDS011;8402;51.466;6.806;2023-02-28T02:17:32;5.80;;;2.97;;
16579;SDS011;8402;51.466;6.806;2023-02-28T02:20:22;7.00;;;2.90;;
16579;SDS011;8402;51.466;6.806;2023-02-28T02:23:27;4.90;;;3.07;;
16579;SDS011;8402;51.466;6.806;2023-02-28T02:35:38;5.67;;;3.00;;
16579;SDS011;8402;51.466;6.806;2023-02-28T02:38:14;6.33;;;2.50;;
16579;SDS011;8402;51.466;6.806;2023-02-28T02:40:57;4.73;;;2.53;;
16579;SDS011;8402;51.466;6.806;2023-02-28T02:43:34;6.73;;;2.67;;
16579;SDS011;8402;51.466;6.806;2023-02-28T02:46:10;8.57;;;2.70;;
16579;SDS011;8402;51.466;6.806;2023-02-28T02:48:44;6.87;;;2.83;;
16579;SDS011;8402;51.466;6.806;2023-02-28T02:51:18;7.67;;;2.70;;
16579;SDS011;8402;51.466;6.806;2023-02-28T02:53:52;7.17;;;2.83;;
16579;SDS011;8402;51.466;6.806;2023-02-28T02:56:25;6.80;;;2.57;;
16579;SDS011;8402;51.466;6.806;2023-02-28T02:58:59;6.97;;;2.50;;
16579;SDS011;8402;51.466;6.806;2023-02-28T03:01:32;6.60;;;2.50;;
16579;SDS011;8402;51.466;6.806;2023-02-28T03:04:06;10.33;;;3.00;;
16579;SDS011;8402;51.466;6.806;2023-02-28T03:06:40;7.60;;;3.10;;
16579;SDS011;8402;51.466;6.806;2023-02-28T03:09:10;6.37;;;3.20;;
16579;SDS011;8402;51.466;6.806;2023-02-28T03:11:40;6.73;;;3.23;;
16579;SDS011;8402;51.466;6.806;2023-02-28T03:14:24;13.00;;;3.33;;
16579;SDS011;8402;51.466;6.806;2023-02-28T03:17:06;6.23;;;3.37;;
16579;SDS011;8402;51.466;6.806;2023-02-28T03:19:55;8.80;;;3.27;;
16579;SDS011;8402;51.466;6.806;2023-02-28T03:22:46;11.23;;;3.50;;
16579;SDS011;8402;51.466;6.806;2023-02-28T03:25:24;9.03;;;3.13;;
16579;SDS011;8402;51.466;6.806;2023-02-28T03:28:00;14.67;;;2.80;;
16579;SDS011;8402;51.466;6.806;2023-02-28T03:30:39;7.97;;;3.30;;
16579;SDS011;8402;51.466;6.806;2023-02-28T03:33:15;7.17;;;3.00;;
16579;SDS011;8402;51.466;6.806;2023-02-28T03:35:50;6.27;;;2.97;;
16579;SDS011;8402;51.466;6.806;2023-02-28T03:38:30;9.80;;;3.13;;
16579;SDS011;8402;51.466;6.806;2023-02-28T03:41:05;7.80;;;3.27;;
16579;SDS011;8402;51.466;6.806;2023-02-28T03:43:40;21.40;;;4.03;;
16579;SDS011;8402;51.466;6.806;2023-02-28T03:46:14;9.73;;;3.30;;
16579;SDS011;8402;51.466;6.806;2023-02-28T03:48:51;12.07;;;3.20;;
16579;SDS011;8402;51.466;6.806;2023-02-28T03:51:25;10.87;;;3.77;;
16579;SDS011;8402;51.466;6.806;2023-02-28T03:54:00;8.13;;;2.97;;
16579;SDS011;8402;51.466;6.806;2023-02-28T03:56:37;10.60;;;3.57;;
16579;SDS011;8402;51.466;6.806;2023-02-28T03:59:13;7.27;;;2.93;;
16579;SDS011;8402;51.466;6.806;2023-02-28T04:01:46;9.20;;;3.80;;
16579;SDS011;8402;51.466;6.806;2023-02-28T04:04:18;8.20;;;3.43;;
16579;SDS011;8402;51.466;6.806;2023-02-28T04:06:49;11.53;;;2.73;;
16579;SDS011;8402;51.466;6.806;2023-02-28T04:09:23;9.73;;;3.60;;
16579;SDS011;8402;51.466;6.806;2023-02-28T04:11:54;5.90;;;3.03;;
16579;SDS011;8402;51.466;6.806;2023-02-28T04:14:25;7.73;;;3.03;;
16579;SDS011;8402;51.466;6.806;2023-02-28T04:16:55;9.20;;;3.20;;
16579;SDS011;8402;51.466;6.806;2023-02-28T04:19:25;8.67;;;3.30;;
16579;SDS011;8402;51.466;6.806;2023-02-28T04:21:55;11.77;;;3.30;;
16579;SDS011;8402;51.466;6.806;2023-02-28T04:24:30;8.50;;;3.33;;
16579;SDS011;8402;51.466;6.806;2023-02-28T04:27:00;12.33;;;3.37;;
16579;SDS011;8402;51.466;6.806;2023-02-28T04:29:31;7.00;;;2.60;;
16579;SDS011;8402;51.466;6.806;2023-02-28T04:32:02;11.67;;;3.20;;
16579;SDS011;8402;51.466;6.806;2023-02-28T04:34:34;7.13;;;2.83;;
16579;SDS011;8402;51.466;6.806;2023-02-28T04:37:04;10.97;;;3.27;;
16579;SDS011;8402;51.466;6.806;2023-02-28T04:39:42;7.47;;;3.13;;
16579;SDS011;8402;51.466;6.806;2023-02-28T04:42:12;8.83;;;3.20;;
16579;SDS011;8402;51.466;6.806;2023-02-28T04:44:42;6.27;;;3.63;;
16579;SDS011;8402;51.466;6.806;2023-02-28T04:47:13;10.77;;;3.33;;
16579;SDS011;8402;51.466;6.806;2023-02-28T04:49:43;7.53;;;3.37;;
16579;SDS011;8402;51.466;6.806;2023-02-28T04:52:13;6.90;;;3.33;;
16579;SDS011;8402;51.466;6.806;2023-02-28T04:54:45;6.63;;;2.90;;
16579;SDS011;8402;51.466;6.806;2023-02-28T04:57:15;11.00;;;3.40;;
16579;SDS011;8402;51.466;6.806;2023-02-28T04:59:45;8.70;;;3.67;;
16579;SDS011;8402;51.466;6.806;2023-02-28T05:02:15;6.67;;;2.50;;
16579;SDS011;8402;51.466;6.806;2023-02-28T05:04:46;6.43;;;3.40;;
16579;SDS011;8402;51.466;6.806;2023-02-28T05:07:16;7.73;;;3.37;;
16579;SDS011;8402;51.466;6.806;2023-02-28T05:09:49;7.60;;;3.53;;
16579;SDS011;8402;51.466;6.806;2023-02-28T05:12:19;6.77;;;3.00;;
16579;SDS011;8402;51.466;6.806;2023-02-28T05:14:49;7.77;;;3.53;;
16579;SDS011;8402;51.466;6.806;2023-02-28T05:17:19;8.20;;;3.80;;
16579;SDS011;8402;51.466;6.806;2023-02-28T05:19:49;6.93;;;3.30;;
16579;SDS011;8402;51.466;6.806;2023-02-28T05:22:26;13.03;;;4.10;;
16579;SDS011;8402;51.466;6.806;2023-02-28T05:24:58;7.87;;;3.93;;
16579;SDS011;8402;51.466;6.806;2023-02-28T05:27:30;8.03;;;4.10;;
16579;SDS011;8402;51.466;6.806;2023-02-28T05:30:00;13.83;;;4.73;;
16579;SDS011;8402;51.466;6.806;2023-02-28T05:32:30;11.93;;;4.67;;
16579;SDS011;8402;51.466;6.806;2023-02-28T05:35:00;10.53;;;4.40;;
16579;SDS011;8402;51.466;6.806;2023-02-28T05:37:31;12.63;;;4.80;;
16579;SDS011;8402;51.466;6.806;2023-02-28T05:40:04;10.70;;;4.10;;
16579;SDS011;8402;51.466;6.806;2023-02-28T05:42:36;12.23;;;4.80;;
16579;SDS011;8402;51.466;6.806;2023-02-28T05:45:07;8.50;;;3.93;;
16579;SDS011;8402;51.466;6.806;2023-02-28T05:47:41;13.80;;;4.67;;
16579;SDS011;8402;51.466;6.806;2023-02-28T05:50:11;11.63;;;4.33;;
16579;SDS011;8402;51.466;6.806;2023-02-28T05:52:41;11.50;;;4.37;;
16579;SDS011;8402;51.466;6.806;2023-02-28T05:55:13;8.20;;;3.70;;
16579;SDS011;8402;51.466;6.806;2023-02-28T05:57:43;18.93;;;4.70;;
16579;SDS011;8402;51.466;6.806;2023-02-28T06:00:14;6.70;;;3.17;;
16579;SDS011;8402;51.466;6.806;2023-02-28T06:02:47;8.90;;;3.23;;
16579;SDS011;8402;51.466;6.806;2023-02-28T06:05:19;6.70;;;3.40;;
16579;SDS011;8402;51.466;6.806;2023-02-28T06:07:51;29.67;;;3.73;;
16579;SDS011;8402;51.466;6.806;2023-02-28T06:10:23;7.50;;;3.80;;
16579;SDS011;8402;51.466;6.806;2023-02-28T06:12:53;12.10;;;3.23;;
16579;SDS011;8402;51.466;6.806;2023-02-28T06:15:26;8.80;;;3.10;;
16579;SDS011;8402;51.466;6.806;2023-02-28T06:17:56;7.67;;;3.00;;
16579;SDS011;8402;51.466;6.806;2023-02-28T06:20:29;13.97;;;3.23;;
16579;SDS011;8402;51.466;6.806;2023-02-28T06:22:59;16.07;;;3.47;;
16579;SDS011;8402;51.466;6.806;2023-02-28T06:25:32;9.70;;;3.60;;
16579;SDS011;8402;51.466;6.806;2023-02-28T06:28:02;16.43;;;3.50;;
16579;SDS011;8402;51.466;6.806;2023-02-28T06:30:33;14.83;;;4.27;;
16579;SDS011;8402;51.466;6.806;2023-02-28T06:33:03;25.90;;;3.87;;
16579;SDS011;8402;51.466;6.806;2023-02-28T06:35:33;8.37;;;2.87;;
16579;SDS011;8402;51.466;6.806;2023-02-28T06:38:03;14.17;;;3.10;;
16579;SDS011;8402;51.466;6.806;2023-02-28T06:40:36;11.53;;;3.13;;
16579;SDS011;8402;51.466;6.806;2023-02-28T06:43:05;13.10;;;3.37;;
16579;SDS011;8402;51.466;6.806;2023-02-28T06:45:35;7.60;;;2.93;;
16579;SDS011;8402;51.466;6.806;2023-02-28T06:48:05;9.40;;;3.10;;
16579;SDS011;8402;51.466;6.806;2023-02-28T06:50:35;11.93;;;2.73;;
16579;SDS011;8402;51.466;6.806;2023-02-28T06:53:05;7.90;;;2.97;;
16579;SDS011;8402;51.466;6.806;2023-02-28T06:55:40;4.87;;;2.40;;
16579;SDS011;8402;51.466;6.806;2023-02-28T06:58:10;9.47;;;3.23;;
16579;SDS011;8402;51.466;6.806;2023-02-28T07:00:45;9.00;;;2.93;;
16579;SDS011;8402;51.466;6.806;2023-02-28T07:03:15;7.43;;;2.70;;
16579;SDS011;8402;51.466;6.806;2023-02-28T07:05:49;7.33;;;3.23;;
16579;SDS011;8402;51.466;6.806;2023-02-28T07:08:19;8.67;;;2.57;;
16579;SDS011;8402;51.466;6.806;2023-02-28T07:10:54;9.17;;;3.07;;
16579;SDS011;8402;51.466;6.806;2023-02-28T07:13:24;12.27;;;3.17;;
16579;SDS011;8402;51.466;6.806;2023-02-28T07:15:55;6.97;;;2.83;;
16579;SDS011;8402;51.466;6.806;2023-02-28T07:18:26;9.40;;;3.47;;
16579;SDS011;8402;51.466;6.806;2023-02-28T07:20:56;10.17;;;3.83;;
16579;SDS011;8402;51.466;6.806;2023-02-28T07:23:27;6.80;;;3.33;;
16579;SDS011;8402;51.466;6.806;2023-02-28T07:25:59;10.07;;;3.10;;
16579;SDS011;8402;51.466;6.806;2023-02-28T07:28:29;8.40;;;3.27;;
16579;SDS011;8402;51.466;6.806;2023-02-28T07:31:03;12.17;;;3.37;;
16579;SDS011;8402;51.466;6.806;2023-02-28T07:33:34;6.20;;;3.17;;
16579;SDS011;8402;51.466;6.806;2023-02-28T07:36:05;19.93;;;3.03;;
16579;SDS011;8402;51.466;6.806;2023-02-28T07:38:40;7.80;;;3.20;;
16579;SDS011;8402;51.466;6.806;2023-02-28T07:41:17;8.60;;;2.83;;
16579;SDS011;8402;51.466;6.806;2023-02-28T07:43:48;9.87;;;3.33;;
16579;SDS011;8402;51.466;6.806;2023-02-28T07:46:21;8.10;;;3.60;;
16579;SDS011;8402;51.466;6.806;2023-02-28T07:48:55;12.80;;;3.47;;
16579;SDS011;8402;51.466;6.806;2023-02-28T07:51:26;8.10;;;3.27;;
16579;SDS011;8402;51.466;6.806;2023-02-28T07:53:57;6.47;;;3.20;;
16579;SDS011;8402;51.466;6.806;2023-02-28T07:56:30;7.63;;;3.00;;
16579;SDS011;8402;51.466;6.806;2023-02-28T07:59:00;5.70;;;3.00;;
16579;SDS011;8402;51.466;6.806;2023-02-28T08:01:30;6.90;;;2.77;;
16579;SDS011;8402;51.466;6.806;2023-02-28T08:04:00;5.17;;;3.00;;
16579;SDS011;8402;51.466;6.806;2023-02-28T08:06:33;5.17;;;2.67;;
16579;SDS011;8402;51.466;6.806;2023-02-28T08:09:03;6.57;;;2.70;;
16579;SDS011;8402;51.466;6.806;2023-02-28T08:11:35;3.83;;;2.33;;
16579;SDS011;8402;51.466;6.806;2023-02-28T08:14:06;7.70;;;2.63;;
16579;SDS011;8402;51.466;6.806;2023-02-28T08:16:35;7.83;;;2.40;;
16579;SDS011;8402;51.466;6.806;2023-02-28T08:19:06;4.13;;;2.50;;
16579;SDS011;8402;51.466;6.806;2023-02-28T08:21:35;4.27;;;2.83;;
16579;SDS011;8402;51.466;6.806;2023-02-28T08:24:06;4.93;;;2.77;;
16579;SDS011;8402;51.466;6.806;2023-02-28T08:26:39;4.87;;;2.30;;
16579;SDS011;8402;51.466;6.806;2023-02-28T08:29:09;6.43;;;2.60;;
16579;SDS011;8402;51.466;6.806;2023-02-28T08:31:39;5.07;;;2.80;;
16579;SDS011;8402;51.466;6.806;2023-02-28T08:34:09;5.50;;;2.60;;
16579;SDS011;8402;51.466;6.806;2023-02-28T08:36:41;6.50;;;2.53;;
16579;SDS011;8402;51.466;6.806;2023-02-28T08:39:12;4.23;;;2.77;;
16579;SDS011;8402;51.466;6.806;2023-02-28T08:41:44;4.93;;;2.87;;
16579;SDS011;8402;51.466;6.806;2023-02-28T08:44:24;9.83;;;2.87;;
16579;SDS011;8402;51.466;6.806;2023-02-28T08:46:54;4.27;;;2.20;;
16579;SDS011;8402;51.466;6.806;2023-02-28T08:49:24;5.23;;;3.00;;
16579;SDS011;8402;51.466;6.806;2023-02-28T08:51:53;10.23;;;3.17;;
16579;SDS011;8402;51.466;6.806;2023-02-28T08:54:24;9.00;;;3.23;;
16579;SDS011;8402;51.466;6.806;2023-02-28T08:56:59;5.83;;;2.80;;
16579;SDS011;8402;51.466;6.806;2023-02-28T08:59:30;7.33;;;2.50;;
16579;SDS011;8402;51.466;6.806;2023-02-28T09:01:59;7.80;;;2.70;;
16579;SDS011;8402;51.466;6.806;2023-02-28T09:04:29;7.03;;;2.60;;
16579;SDS011;8402;51.466;6.806;2023-02-28T09:06:59;5.37;;;2.37;;
16579;SDS011;8402;51.466;6.806;2023-02-28T09:09:29;6.77;;;2.70;;
16579;SDS011;8402;51.466;6.806;2023-02-28T09:12:02;5.37;;;2.00;;
16579;SDS011;8402;51.466;6.806;2023-02-28T09:14:32;7.73;;;2.80;;
16579;SDS011;8402;51.466;6.806;2023-02-28T09:17:02;4.10;;;2.20;;
16579;SDS011;8402;51.466;6.806;2023-02-28T09:19:32;4.17;;;2.00;;
16579;SDS011;8402;51.466;6.806;2023-02-28T09:22:03;3.07;;;2.00;;
16579;SDS011;8402;51.466;6.806;2023-02-28T09:24:33;3.73;;;2.33;;
16579;SDS011;8402;51.466;6.806;2023-02-28T09:27:05;3.83;;;1.87;;
16579;SDS011;8402;51.466;6.806;2023-02-28T09:29:36;2.70;;;1.80;;
16579;SDS011;8402;51.466;6.806;2023-02-28T09:32:06;9.60;;;2.03;;
16579;SDS011;8402;51.466;6.806;2023-02-28T09:34:37;2.70;;;1.60;;
16579;SDS011;8402;51.466;6.806;2023-02-28T09:37:07;3.07;;;1.40;;
16579;SDS011;8402;51.466;6.806;2023-02-28T09:39:37;5.40;;;1.97;;
16579;SDS011;8402;51.466;6.806;2023-02-28T09:42:13;3.67;;;1.43;;
16579;SDS011;8402;51.466;6.806;2023-02-28T09:44:50;3.50;;;1.60;;
16579;SDS011;8402;51.466;6.806;2023-02-28T09:47:23;2.63;;;1.67;;
16579;SDS011;8402;51.466;6.806;2023-02-28T09:50:01;3.30;;;1.50;;
16579;SDS011;8402;51.466;6.806;2023-02-28T09:52:36;4.07;;;1.50;;
16579;SDS011;8402;51.466;6.806;2023-02-28T09:55:15;5.23;;;1.57;;
16579;SDS011;8402;51.466;6.806;2023-02-28T09:57:52;3.10;;;1.77;;
16579;SDS011;8402;51.466;6.806;2023-02-28T10:00:28;3.10;;;1.17;;
16579;SDS011;8402;51.466;6.806;2023-02-28T10:03:05;1.80;;;1.23;;
16579;SDS011;8402;51.466;6.806;2023-02-28T10:05:48;3.07;;;1.60;;
16579;SDS011;8402;51.466;6.806;2023-02-28T10:08:22;5.30;;;1.53;;
16579;SDS011;8402;51.466;6.806;2023-02-28T10:10:55;2.97;;;1.73;;
16579;SDS011;8402;51.466;6.806;2023-02-28T10:13:32;4.43;;;1.67;;
16579;SDS011;8402;51.466;6.806;2023-02-28T10:16:05;3.33;;;2.17;;
16579;SDS011;8402;51.466;6.806;2023-02-28T10:18:45;1.87;;;1.07;;
16579;SDS011;8402;51.466;6.806;2023-02-28T10:21:19;1.73;;;1.07;;
16579;SDS011;8402;51.466;6.806;2023-02-28T10:23:56;2.53;;;1.30;;
16579;SDS011;8402;51.466;6.806;2023-02-28T10:26:32;2.27;;;1.33;;
16579;SDS011;8402;51.466;6.806;2023-02-28T10:29:07;5.47;;;1.50;;
16579;SDS011;8402;51.466;6.806;2023-02-28T10:31:37;2.57;;;1.30;;
16579;SDS011;8402;51.466;6.806;2023-02-28T10:34:10;2.80;;;1.40;;
16579;SDS011;8402;51.466;6.806;2023-02-28T10:36:46;3.37;;;1.40;;
16579;SDS011;8402;51.466;6.806;2023-02-28T10:42:05;3.57;;;1.77;;
16579;SDS011;8402;51.466;6.806;2023-02-28T10:45:13;2.87;;;1.03;;
16579;SDS011;8402;51.466;6.806;2023-02-28T10:47:49;3.43;;;1.50;;
16579;SDS011;8402;51.466;6.806;2023-02-28T10:50:29;3.17;;;1.43;;
16579;SDS011;8402;51.466;6.806;2023-02-28T10:53:07;3.00;;;1.50;;
16579;SDS011;8402;51.466;6.806;2023-02-28T10:55:46;4.87;;;1.57;;
16579;SDS011;8402;51.466;6.806;2023-02-28T10:58:28;5.17;;;1.70;;
16579;SDS011;8402;51.466;6.806;2023-02-28T11:01:02;3.10;;;1.47;;
16579;SDS011;8402;51.466;6.806;2023-02-28T11:03:32;4.30;;;1.73;;
16579;SDS011;8402;51.466;6.806;2023-02-28T11:06:07;3.20;;;1.63;;
16579;SDS011;8402;51.466;6.806;2023-02-28T11:08:45;3.30;;;1.50;;
16579;SDS011;8402;51.466;6.806;2023-02-28T11:11:17;2.07;;;1.37;;
16579;SDS011;8402;51.466;6.806;2023-02-28T11:13:51;2.23;;;1.07;;
16579;SDS011;8402;51.466;6.806;2023-02-28T11:16:33;1.93;;;1.07;;
16579;SDS011;8402;51.466;6.806;2023-02-28T11:19:06;2.80;;;1.47;;
16579;SDS011;8402;51.466;6.806;2023-02-28T11:21:50;2.87;;;1.40;;
16579;SDS011;8402;51.466;6.806;2023-02-28T11:24:26;3.00;;;1.50;;
16579;SDS011;8402;51.466;6.806;2023-02-28T11:26:57;1.97;;;1.40;;
16579;SDS011;8402;51.466;6.806;2023-02-28T11:29:30;3.43;;;1.63;;
16579;SDS011;8402;51.466;6.806;2023-02-28T11:32:09;1.60;;;1.20;;
16579;SDS011;8402;51.466;6.806;2023-02-28T11:34:45;2.53;;;1.20;;
16579;SDS011;8402;51.466;6.806;2023-02-28T11:37:16;4.67;;;1.57;;
16579;SDS011;8402;51.466;6.806;2023-02-28T11:39:48;2.83;;;1.53;;
16579;SDS011;8402;51.466;6.806;2023-02-28T11:42:24;12.57;;;1.53;;
16579;SDS011;8402;51.466;6.806;2023-02-28T11:45:25;9.67;;;2.00;;
16579;SDS011;8402;51.466;6.806;2023-02-28T11:48:12;3.07;;;1.80;;
16579;SDS011;8402;51.466;6.806;2023-02-28T11:50:52;5.47;;;1.67;;
16579;SDS011;8402;51.466;6.806;2023-02-28T11:53:35;3.07;;;1.60;;
16579;SDS011;8402;51.466;6.806;2023-02-28T11:56:22;2.03;;;0.97;;
16579;SDS011;8402;51.466;6.806;2023-02-28T11:59:08;7.73;;;1.67;;
16579;SDS011;8402;51.466;6.806;2023-02-28T12:01:53;6.30;;;1.80;;
16579;SDS011;8402;51.466;6.806;2023-02-28T12:04:39;3.50;;;1.00;;
16579;SDS011;8402;51.466;6.806;2023-02-28T12:07:19;2.53;;;1.57;;
16579;SDS011;8402;51.466;6.806;2023-02-28T12:09:59;3.63;;;1.53;;
16579;SDS011;8402;51.466;6.806;2023-02-28T12:12:43;3.30;;;1.37;;
16579;SDS011;8402;51.466;6.806;2023-02-28T12:15:29;3.73;;;1.60;;
16579;SDS011;8402;51.466;6.806;2023-02-28T12:18:15;1.50;;;0.90;;
16579;SDS011;8402;51.466;6.806;2023-02-28T12:20:59;2.60;;;1.60;;
16579;SDS011;8402;51.466;6.806;2023-02-28T12:26:32;4.37;;;2.10;;
16579;SDS011;8402;51.466;6.806;2023-02-28T12:29:10;8.10;;;2.67;;
16579;SDS011;8402;51.466;6.806;2023-02-28T12:31:47;2.83;;;1.70;;
16579;SDS011;8402;51.466;6.806;2023-02-28T12:34:22;3.50;;;1.00;;
16579;SDS011;8402;51.466;6.806;2023-02-28T12:37:01;6.10;;;1.50;;
16579;SDS011;8402;51.466;6.806;2023-02-28T12:39:36;2.50;;;1.60;;
16579;SDS011;8402;51.466;6.806;2023-02-28T12:42:17;1.97;;;1.23;;
16579;SDS011;8402;51.466;6.806;2023-02-28T12:44:52;3.30;;;1.83;;
16579;SDS011;8402;51.466;6.806;2023-02-28T12:47:26;3.17;;;1.87;;
16579;SDS011;8402;51.466;6.806;2023-02-28T12:49:56;2.97;;;1.57;;
16579;SDS011;8402;51.466;6.806;2023-02-28T12:52:35;3.77;;;1.80;;
16579;SDS011;8402;51.466;6.806;2023-02-28T12:55:12;2.67;;;1.37;;
16579;SDS011;8402;51.466;6.806;2023-02-28T12:57:52;3.90;;;1.87;;
16579;SDS011;8402;51.466;6.806;2023-02-28T13:00:34;2.33;;;1.60;;
16579;SDS011;8402;51.466;6.806;2023-02-28T13:09:06;2.67;;;2.03;;
16579;SDS011;8402;51.466;6.806;2023-02-28T13:11:42;3.97;;;2.10;;
16579;SDS011;8402;51.466;6.806;2023-02-28T13:14:20;4.17;;;2.17;;
16579;SDS011;8402;51.466;6.806;2023-02-28T13:17:01;4.27;;;2.20;;
16579;SDS011;8402;51.466;6.806;2023-02-28T13:19:40;3.20;;;2.10;;
16579;SDS011;8402;51.466;6.806;2023-02-28T13:22:18;6.83;;;2.43;;
16579;SDS011;8402;51.466;6.806;2023-02-28T13:24:53;6.53;;;2.33;;
16579;SDS011;8402;51.466;6.806;2023-02-28T13:33:22;3.30;;;2.30;;
16579;SDS011;8402;51.466;6.806;2023-02-28T13:36:01;14.80;;;2.67;;
16579;SDS011;8402;51.466;6.806;2023-02-28T13:38:38;6.93;;;2.87;;
16579;SDS011;8402;51.466;6.806;2023-02-28T13:44:12;4.13;;;2.73;;
16579;SDS011;8402;51.466;6.806;2023-02-28T13:49:44;7.83;;;2.67;;
16579;SDS011;8402;51.466;6.806;2023-02-28T13:52:15;3.43;;;2.50;;
16579;SDS011;8402;51.466;6.806;2023-02-28T13:55:00;4.97;;;2.57;;
16579;SDS011;8402;51.466;6.806;2023-02-28T13:57:47;5.17;;;2.80;;
16579;SDS011;8402;51.466;6.806;2023-02-28T14:00:31;4.23;;;2.70;;
16579;SDS011;8402;51.466;6.806;2023-02-28T14:03:25;5.33;;;2.67;;
16579;SDS011;8402;51.466;6.806;2023-02-28T14:06:14;2.60;;;2.00;;
16579;SDS011;8402;51.466;6.806;2023-02-28T14:08:49;3.30;;;2.20;;
16579;SDS011;8402;51.466;6.806;2023-02-28T14:11:32;3.30;;;1.70;;
16579;SDS011;8402;51.466;6.806;2023-02-28T14:14:04;5.07;;;2.80;;
16579;SDS011;8402;51.466;6.806;2023-02-28T14:16:40;4.83;;;2.63;;
16579;SDS011;8402;51.466;6.806;2023-02-28T14:19:14;4.53;;;2.80;;
16579;SDS011;8402;51.466;6.806;2023-02-28T14:21:51;5.03;;;2.87;;
16579;SDS011;8402;51.466;6.806;2023-02-28T14:24:43;5.87;;;2.80;;
16579;SDS011;8402;51.466;6.806;2023-02-28T14:27:29;9.43;;;4.67;;
16579;SDS011;8402;51.466;6.806;2023-02-28T14:33:22;5.20;;;2.83;;
16579;SDS011;8402;51.466;6.806;2023-02-28T14:36:06;3.97;;;2.50;;
16579;SDS011;8402;51.466;6.806;2023-02-28T14:38:41;5.87;;;2.60;;
16579;SDS011;8402;51.466;6.806;2023-02-28T14:41:16;5.43;;;2.50;;
16579;SDS011;8402;51.466;6.806;2023-02-28T14:43:50;4.83;;;2.90;;
16579;SDS011;8402;51.466;6.806;2023-02-28T14:46:23;5.17;;;2.90;;
16579;SDS011;8402;51.466;6.806;2023-02-28T14:49:00;8.93;;;3.13;;
16579;SDS011;8402;51.466;6.806;2023-02-28T14:51:33;5.37;;;3.13;;
16579;SDS011;8402;51.466;6.806;2023-02-28T14:54:04;7.43;;;3.40;;
16579;SDS011;8402;51.466;6.806;2023-02-28T14:56:35;5.30;;;2.93;;
16579;SDS011;8402;51.466;6.806;2023-02-28T14:59:21;8.07;;;3.10;;
16579;SDS011;8402;51.466;6.806;2023-02-28T15:04:56;4.47;;;2.80;;
16579;SDS011;8402;51.466;6.806;2023-02-28T15:07:27;5.03;;;2.67;;
16579;SDS011;8402;51.466;6.806;2023-02-28T15:10:07;6.17;;;3.73;;
16579;SDS011;8402;51.466;6.806;2023-02-28T15:12:39;11.37;;;4.57;;
16579;SDS011;8402;51.466;6.806;2023-02-28T15:15:15;5.97;;;3.80;;
16579;SDS011;8402;51.466;6.806;2023-02-28T15:17:57;5.53;;;3.10;;
16579;SDS011;8402;51.466;6.806;2023-02-28T15:20:32;21.40;;;9.70;;
16579;SDS011;8402;51.466;6.806;2023-02-28T15:23:03;10.40;;;5.77;;
16579;SDS011;8402;51.466;6.806;2023-02-28T15:25:33;8.87;;;3.93;;
16579;SDS011;8402;51.466;6.806;2023-02-28T15:28:04;9.47;;;3.63;;
16579;SDS011;8402;51.466;6.806;2023-02-28T15:30:34;8.07;;;3.10;;
16579;SDS011;8402;51.466;6.806;2023-02-28T15:33:05;7.10;;;3.23;;
16579;SDS011;8402;51.466;6.806;2023-02-28T15:35:49;6.67;;;3.27;;
16579;SDS011;8402;51.466;6.806;2023-02-28T15:38:22;5.10;;;3.10;;
16579;SDS011;8402;51.466;6.806;2023-02-28T15:40:53;4.53;;;3.10;;
16579;SDS011;8402;51.466;6.806;2023-02-28T15:43:25;6.63;;;3.93;;
16579;SDS011;8402;51.466;6.806;2023-02-28T15:45:57;14.77;;;5.00;;
16579;SDS011;8402;51.466;6.806;2023-02-28T15:48:29;8.10;;;3.83;;
16579;SDS011;8402;51.466;6.806;2023-02-28T15:51:05;10.27;;;4.40;;
16579;SDS011;8402;51.466;6.806;2023-02-28T15:53:47;8.10;;;4.40;;
16579;SDS011;8402;51.466;6.806;2023-02-28T15:56:22;7.10;;;4.53;;
16579;SDS011;8402;51.466;6.806;2023-02-28T15:58:54;7.20;;;3.67;;
16579;SDS011;8402;51.466;6.806;2023-02-28T16:01:26;4.53;;;3.00;;
16579;SDS011;8402;51.466;6.806;2023-02-28T16:03:59;4.40;;;2.27;;
16579;SDS011;8402;51.466;6.806;2023-02-28T16:06:37;3.70;;;2.80;;
16579;SDS011;8402;51.466;6.806;2023-02-28T16:09:09;8.40;;;2.70;;
16579;SDS011;8402;51.466;6.806;2023-02-28T16:11:42;5.37;;;3.03;;
16579;SDS011;8402;51.466;6.806;2023-02-28T16:14:15;6.90;;;2.70;;
16579;SDS011;8402;51.466;6.806;2023-02-28T16:16:50;7.37;;;2.53;;
16579;SDS011;8402;51.466;6.806;2023-02-28T16:19:22;8.60;;;2.77;;
16579;SDS011;8402;51.466;6.806;2023-02-28T16:21:55;4.33;;;2.50;;